Flight Track Log - Related Links

Times and Time Zones

All times are in EDT time to prevent confusion due to time zone crossing. See the SWA1301 flight status page for this flight to view local times or setup timezone preferences in your user account.

Time Position Orientation Groundspeed Altitude Reporting Facility
EDT Latitude Longitude Course Direction KTS MPH feet Rate Location/Type
Sun 10:09:40 AM 29.6331 -95.2631 44° Northeast 167 192 700  Level Houston Center
Sun 10:10:30 AM 29.6578 -95.2358 44° Northeast 224 258 2,400 2,087 Climbing Houston Center
Sun 10:11:12 AM 29.6961 -95.2442 349° North 232 267 3,900 2,942 Climbing Houston Center
Sun 10:12:14 AM 29.7678 -95.2544 353° North 254 292 7,500 3,268 Climbing Houston Center
Sun 10:13:15 AM 29.8358 -95.2600 356° North 248 285 10,600 2,361 Climbing Houston Center
Sun 10:14:16 AM 29.9178 -95.2533 North 289 333 12,300 1,902 Climbing Houston Center
Sun 10:15:18 AM 30.0267 -95.2478 North 329 379 14,500 2,341 Climbing Houston Center
Sun 10:16:19 AM 30.1231 -95.2419 North 345 397 17,100 2,098 Climbing Houston Center
Sun 10:17:21 AM 30.2239 -95.2356 North 359 413 18,800 1,756 Climbing Houston Center
Sun 10:18:22 AM 30.3261 -95.2083 13° North 384 442 20,700 1,707 Climbing Houston Center
Sun 10:19:24 AM 30.4419 -95.1639 18° North 393 452 22,300 1,512 Climbing Houston Center
Sun 10:20:25 AM 30.5428 -95.1044 27° Northeast 406 467 23,800 1,426 Climbing Houston Center
Sun 10:21:26 AM 30.6453 -95.0403 28° Northeast 416 479 25,200 1,317 Climbing Houston Center
Sun 10:22:28 AM 30.7506 -94.9758 28° Northeast 424 488 26,500 1,805 Climbing Houston Center
Sun 10:23:29 AM 30.8539 -94.9106 28° Northeast 423 487 28,900 2,000 Climbing Houston Center
Sun 10:24:31 AM 30.9533 -94.8483 28° Northeast 412 474 30,600 1,306 Climbing Houston Center
Sun 10:25:33 AM 31.0514 -94.7864 28° Northeast 402 463 31,600 1,073 Climbing Houston Center
Sun 10:26:34 AM 31.1525 -94.7250 27° Northeast 419 482 32,800 1,171 Climbing Houston Center
Sun 10:27:36 AM 31.2619 -94.6878 16° North 414 476 34,000 1,122 Climbing Houston Center
Sun 10:28:37 AM 31.3797 -94.6550 13° North 395 455 35,100 1,073 Climbing Houston Center
Sun 10:29:39 AM 31.4850 -94.6267 13° North 390 449 36,200 927 Climbing Houston Center
Sun 10:30:40 AM 31.5894 -94.5969 14° North 388 447 37,000 390 Climbing Houston Center
Sun 10:31:42 AM 31.6903 -94.5686 13° North 377 434 37,000  Level Houston Center
Sun 10:32:43 AM 31.8106 -94.5353 13° North 370 426 37,000  Level Houston Center
Sun 10:33:23 AM 31.8775 -94.5192 12° North 375 432 37,000  Level Fort Worth Center
Sun 10:34:23 AM 31.9769 -94.4892 14° North 375 432 37,000  Level Fort Worth Center
Sun 10:35:23 AM 32.0764 -94.4592 14° North 375 432 37,000  Level Fort Worth Center
Sun 10:36:23 AM 32.1719 -94.4314 14° North 370 426 37,000  Level Fort Worth Center
Sun 10:37:23 AM 32.2692 -94.3986 16° North 357 411 37,000  Level Fort Worth Center
Sun 10:38:23 AM 32.3686 -94.3708 13° North 357 411 37,000  Level Fort Worth Center
Sun 10:39:23 AM 32.4683 -94.3428 13° North 357 411 37,000  Level Fort Worth Center
Sun 10:40:23 AM 32.5678 -94.3150 13° North 357 411 37,000  Level Fort Worth Center
Sun 10:41:23 AM 32.6672 -94.2867 13° North 357 411 37,000  Level Fort Worth Center
Sun 10:42:23 AM 32.7647 -94.2586 14° North 357 411 37,000  Level Fort Worth Center
Sun 10:43:23 AM 32.8619 -94.2281 15° North 357 411 37,000  Level Fort Worth Center
Sun 10:44:23 AM 32.9594 -94.1997 14° North 357 411 37,000  Level Fort Worth Center
Sun 10:45:23 AM 33.0589 -94.1714 13° North 357 411 37,000  Level Fort Worth Center
Sun 10:46:23 AM 33.1583 -94.1456 12° North 357 411 37,000  Level Fort Worth Center
Sun 10:47:23 AM 33.2536 -94.1197 13° North 352 405 37,000  Level Fort Worth Center
Sun 10:48:23 AM 33.3428 -94.0964 12° North 357 411 37,000  Level Fort Worth Center
Sun 10:49:23 AM 33.4486 -94.0675 13° North 367 422 37,000  Level Fort Worth Center
Sun 10:50:23 AM 33.5456 -94.0339 16° North 367 422 37,000  Level Fort Worth Center
Sun 10:51:23 AM 33.6431 -94.0028 15° North 367 422 37,000  Level Fort Worth Center
Sun 10:52:23 AM 33.7403 -93.9739 14° North 367 422 37,000  Level Fort Worth Center
Sun 10:53:23 AM 33.8394 -93.9425 15° North 362 417 37,000  Level Fort Worth Center
Sun 10:54:23 AM 33.9347 -93.9139 14° North 357 411 37,000  Level Fort Worth Center
Sun 10:56:38 AM 34.1511 -93.8508 14° North 353 406 37,000  Level Memphis Center
Sun 10:57:38 AM 34.2500 -93.8197 15° North 353 406 37,000  Level Memphis Center
Sun 10:58:38 AM 34.3533 -93.7836 16° North 358 412 37,000  Level Memphis Center
Sun 10:59:38 AM 34.4497 -93.7597 12° North 358 412 37,000 -150 Level Memphis Center
Sun 11:00:38 AM 34.5447 -93.7283 15° North 352 405 36,700 -650 Descending Memphis Center
Sun 11:01:38 AM 34.6414 -93.6992 14° North 352 405 35,700 -1,000 Descending Memphis Center
Sun 11:02:38 AM 34.7381 -93.6703 14° North 352 405 34,700 -950 Descending Memphis Center
Sun 11:03:38 AM 34.8328 -93.6386 15° North 352 405 33,800 -900 Descending Memphis Center
Sun 11:04:38 AM 34.9317 -93.6094 14° North 357 411 32,900 -950 Descending Memphis Center
Sun 11:05:38 AM 35.0303 -93.5828 12° North 357 411 31,900 -1,450 Descending Memphis Center
Sun 11:06:38 AM 35.1231 -93.5533 15° North 357 411 30,000 -2,000 Descending Memphis Center
Sun 11:07:38 AM 35.2133 -93.5264 14° North 351 404 27,900 -2,100 Descending Memphis Center
Sun 11:08:38 AM 35.3058 -93.4942 16° North 341 392 25,800 -2,150 Descending Memphis Center
Sun 11:09:38 AM 35.3964 -93.4644 15° North 336 387 23,600 -1,900 Descending Memphis Center
Sun 11:10:38 AM 35.4761 -93.4419 13° North 336 387 22,000 -1,900 Descending Memphis Center
Sun 11:11:38 AM 35.5606 -93.3992 22° Northeast 331 381 19,800 -2,150 Descending Memphis Center
Sun 11:12:38 AM 35.6411 -93.3511 26° Northeast 320 368 17,700 -2,050 Descending Memphis Center
Sun 11:13:38 AM 35.7192 -93.3078 24° Northeast 315 362 15,700 -2,000 Descending Memphis Center
Sun 11:14:38 AM 35.7975 -93.2669 23° Northeast 309 356 13,700 -1,950 Descending Memphis Center
Sun 11:15:38 AM 35.8753 -93.2289 22° Northeast 302 348 11,800 -1,800 Descending Memphis Center
Sun 11:16:38 AM 35.9514 -93.1853 25° Northeast 302 348 10,100 -1,400 Descending Memphis Center
Sun 11:17:38 AM 36.0211 -93.1492 23° Northeast 291 335 9,000 -1,200 Descending Memphis Center
Sun 11:18:38 AM 36.0864 -93.1156 23° Northeast 271 312 7,700 -1,150 Descending Memphis Center
Sun 11:19:38 AM 36.1539 -93.0792 24° Northeast 259 298 6,700 -850 Descending Memphis Center
Sun 11:20:38 AM 36.2172 -93.0453 23° Northeast 253 291 6,000 -321 Descending Memphis Center
Sun 11:22:45 AM 36.3489 -93.0431 North 248 285 5,700 -349 Descending Kansas City Center
Sun 11:23:47 AM 36.3967 -93.0842 325° Northwest 239 275 4,900 -774 Descending Kansas City Center
Sun 11:25:00 AM 36.4830 -93.1539 329° Northwest  Level FlightAware Approximate
Sun 11:32:00 AM 36.5167 -93.2000 302° West  Level FlightAware Approximate
Sun 11:33:00 AM 36.5321 -93.2005 302° West  Level Estimated
Sun 11:34:00 AM 36.5321 -93.2005 302° West  Level Estimated
Sun 11:35:00 AM 36.5321 -93.2005 302° West  Level Estimated
Sun 11:36:00 AM 36.5321 -93.2005 302° West  Level Estimated

Login

Don't have an account? Register now (free) for customized features, flight alerts, and more!